Time;durP1;ratioP1;P1;durP2;ratioP2;P2;SDS_P1;SDS_P2;PMS_P1;PMS_P2;Temp;Humidity;BMP_temperature;BMP_pressure;BME280_temperature;BME280_humidity;BME280_pressure;Samples;Min_cycle;Max_cycle;Signal;HPM_P1;HPM_P2
2023/09/30 00:00:44;;;;;;;;;;;;;;;25.24;nan;101861.09;4982138;28;20612;-88
2023/09/30 00:03:11;;;;;;;;;;;;;;;25.21;nan;101872.72;4982340;28;19965;-88
2023/09/30 00:05:37;;;;;;;;;;;;;;;25.13;nan;101872.69;4980874;28;20428;-88
2023/09/30 00:08:02;;;;;;;;;;;;;;;25.00;nan;101872.53;4981581;28;19917;-90
2023/09/30 00:10:30;;;;;;;;;;;;;;;24.92;nan;101876.00;4978822;28;19921;-89
2023/09/30 00:12:55;;;;;;;;;;;;;;;24.91;nan;101873.56;4983157;28;19929;-92
2023/09/30 00:15:20;;;;;;;;;;;;;;;24.92;nan;101875.19;4980294;28;19921;-92
2023/09/30 00:17:46;;;;;;;;;;;;;;;24.86;nan;101879.22;4985544;28;19922;-90
2023/09/30 00:20:11;;;;;;;;;;;;;;;24.76;nan;101888.50;4982629;28;20028;-89
2023/09/30 00:22:36;;;;;;;;;;;;;;;24.73;nan;101883.66;4974703;28;19930;-90
2023/09/30 00:25:02;;;;;;;;;;;;;;;24.70;nan;101889.78;4981870;28;20005;-89
2023/09/30 00:27:27;;;;;;;;;;;;;;;24.68;nan;101900.25;4982443;28;19938;-87
2023/09/30 00:29:52;;;;;;;;;;;;;;;24.68;nan;101911.22;4984368;28;19933;-91
2023/09/30 00:32:18;;;;;;;;;;;;;;;24.63;nan;101912.16;4981217;28;20703;-91
2023/09/30 00:34:43;;;;;;;;;;;;;;;24.66;nan;101916.22;4987407;28;20145;-92
2023/09/30 00:37:08;;;;;;;;;;;;;;;24.70;nan;101918.00;4981642;28;20400;-92
2023/09/30 00:39:33;;;;;;;;;;;;;;;24.73;nan;101922.03;4979169;28;19922;-91
2023/09/30 00:41:59;;;;;;;;;;;;;;;24.67;nan;101923.31;4983132;28;20143;-91
2023/09/30 00:44:27;;;;;;;;;;;;;;;24.67;nan;101940.56;4980544;28;20007;-91
2023/09/30 00:46:54;;;;;;;;;;;;;;;24.70;nan;101945.41;4983991;28;20052;-91
2023/09/30 00:49:20;;;;;;;;;;;;;;;24.75;nan;101949.13;4983101;28;20385;-91
2023/09/30 00:51:46;;;;;;;;;;;;;;;24.73;nan;101943.97;4979316;28;20061;-92
2023/09/30 00:54:12;;;;;;;;;;;;;;;24.73;nan;101956.84;4976747;28;20004;-93
2023/09/30 00:56:42;;;;;;;;;;;;;;;24.67;nan;101957.00;4980863;28;19987;-89
2023/09/30 00:59:08;;;;;;;;;;;;;;;24.53;nan;101958.19;4997556;28;19921;-88
2023/09/30 01:01:33;;;;;;;;;;;;;;;24.43;nan;101963.94;4979706;28;19928;-89
2023/09/30 01:03:59;;;;;;;;;;;;;;;24.35;nan;101977.25;4979899;28;19922;-89
2023/09/30 01:06:24;;;;;;;;;;;;;;;24.26;nan;101978.28;4979629;28;20401;-90
2023/09/30 01:08:50;;;;;;;;;;;;;;;24.22;nan;101971.78;4976759;28;19976;-89
2023/09/30 01:11:15;;;;;;;;;;;;;;;24.24;nan;101984.09;4981047;28;19961;-88
2023/09/30 01:13:40;;;;;;;;;;;;;;;24.15;nan;101988.66;4979540;28;20342;-88
2023/09/30 01:16:09;;;;;;;;;;;;;;;24.06;nan;101985.88;4981307;28;19976;-88
2023/09/30 01:18:36;;;;;;;;;;;;;;;23.97;nan;101975.94;4978382;28;19921;-89
2023/09/30 01:21:03;;;;;;;;;;;;;;;23.90;nan;101984.59;4979379;28;19921;-89
2023/09/30 01:23:29;;;;;;;;;;;;;;;23.81;nan;101981.75;4976737;28;19926;-89
2023/09/30 01:25:55;;;;;;;;;;;;;;;23.77;nan;101997.19;4981739;28;19964;-89
2023/09/30 01:28:20;;;;;;;;;;;;;;;23.74;nan;101995.06;4977440;28;19957;-87
2023/09/30 01:30:45;;;;;;;;;;;;;;;23.70;nan;101996.81;4980679;28;19932;-89
2023/09/30 01:33:11;;;;;;;;;;;;;;;23.66;nan;101997.69;4980713;28;19930;-88
2023/09/30 01:35:36;;;;;;;;;;;;;;;23.66;nan;102011.38;4977737;28;19932;-88
2023/09/30 01:38:02;;;;;;;;;;;;;;;23.67;nan;102004.78;4996019;28;19928;-88
2023/09/30 01:40:27;;;;;;;;;;;;;;;23.65;nan;102002.38;4976001;28;19926;-88
2023/09/30 01:42:52;;;;;;;;;;;;;;;23.58;nan;102010.19;4978588;28;19976;-89
2023/09/30 01:45:18;;;;;;;;;;;;;;;23.56;nan;102017.84;4977946;28;19933;-88
2023/09/30 01:47:43;;;;;;;;;;;;;;;23.56;nan;102015.13;4979636;28;19933;-89
2023/09/30 01:50:08;;;;;;;;;;;;;;;23.54;nan;102020.09;4980529;28;19926;-88
2023/09/30 01:52:34;;;;;;;;;;;;;;;23.48;nan;102010.34;4978721;28;19921;-88
2023/09/30 01:55:00;;;;;;;;;;;;;;;23.45;nan;102019.16;4975819;28;19922;-88
2023/09/30 01:57:25;;;;;;;;;;;;;;;23.45;nan;102024.63;4978401;28;20267;-87
2023/09/30 01:59:51;;;;;;;;;;;;;;;23.44;nan;102023.84;4979398;28;19918;-88
2023/09/30 02:02:17;;;;;;;;;;;;;;;23.43;nan;102043.28;4978831;28;20286;-88
2023/09/30 02:04:43;;;;;;;;;;;;;;;23.39;nan;102039.53;4977136;28;19948;-88
2023/09/30 02:07:09;;;;;;;;;;;;;;;23.35;nan;102036.59;4982709;28;20496;-88
2023/09/30 02:09:34;;;;;;;;;;;;;;;23.30;nan;102038.59;4980337;28;19932;-89
2023/09/30 02:12:00;;;;;;;;;;;;;;;23.27;nan;102041.94;4980380;28;19926;-88
2023/09/30 02:14:25;;;;;;;;;;;;;;;23.21;nan;102046.72;4979974;28;19921;-87
2023/09/30 02:16:50;;;;;;;;;;;;;;;23.17;nan;102054.72;4979985;28;20532;-89
2023/09/30 02:19:16;;;;;;;;;;;;;;;23.15;nan;102058.84;4979559;28;19926;-88
2023/09/30 02:21:42;;;;;;;;;;;;;;;23.14;nan;102063.50;4982327;28;19937;-88
2023/09/30 02:24:07;;;;;;;;;;;;;;;23.13;nan;102055.59;4980019;28;20445;-87
2023/09/30 02:26:33;;;;;;;;;;;;;;;23.11;nan;102066.84;4983622;28;19922;-87
2023/09/30 02:28:58;;;;;;;;;;;;;;;23.07;nan;102063.09;4983585;28;20022;-87
2023/09/30 02:31:23;;;;;;;;;;;;;;;23.02;nan;102073.31;4984102;28;20440;-88
2023/09/30 02:33:49;;;;;;;;;;;;;;;22.98;nan;102073.09;4982005;28;19921;-87
2023/09/30 02:36:15;;;;;;;;;;;;;;;22.89;nan;102080.34;4981387;28;19922;-88
2023/09/30 02:38:41;;;;;;;;;;;;;;;22.78;nan;102081.56;4983373;28;20356;-88
2023/09/30 02:41:06;;;;;;;;;;;;;;;22.74;nan;102086.03;4981011;28;19921;-88
2023/09/30 02:43:32;;;;;;;;;;;;;;;22.71;nan;102086.63;4983414;28;19926;-87
2023/09/30 02:45:58;;;;;;;;;;;;;;;22.70;nan;102093.19;4982867;28;20052;-88
2023/09/30 02:48:23;;;;;;;;;;;;;;;22.68;nan;102103.63;4982511;28;20015;-88
2023/09/30 02:50:48;;;;;;;;;;;;;;;22.65;nan;102105.03;4987097;28;20102;-88
2023/09/30 02:53:14;;;;;;;;;;;;;;;22.63;nan;102100.97;4982805;28;19926;-86
2023/09/30 02:55:40;;;;;;;;;;;;;;;22.60;nan;102110.53;4979630;28;19921;-88
2023/09/30 02:58:07;;;;;;;;;;;;;;;22.58;nan;102102.66;4985285;28;19918;-88
2023/09/30 03:00:32;;;;;;;;;;;;;;;22.58;nan;102101.84;4982583;28;20012;-88
2023/09/30 03:02:59;;;;;;;;;;;;;;;22.56;nan;102101.31;4981292;28;19922;-88
2023/09/30 03:05:25;;;;;;;;;;;;;;;22.52;nan;102105.75;4980219;28;19921;-88
2023/09/30 03:07:51;;;;;;;;;;;;;;;22.48;nan;102104.72;4979699;28;20402;-87
2023/09/30 03:10:26;;;;;;;;;;;;;;;22.44;nan;102109.97;4983224;28;19941;-88
2023/09/30 03:12:54;;;;;;;;;;;;;;;22.41;nan;102110.53;4978686;28;20405;-86
2023/09/30 03:15:20;;;;;;;;;;;;;;;22.37;nan;102120.44;4982847;28;19965;-87
2023/09/30 03:17:45;;;;;;;;;;;;;;;22.36;nan;102124.28;4978038;28;19925;-87
2023/09/30 03:20:14;;;;;;;;;;;;;;;22.31;nan;102118.91;4981135;28;19997;-87
2023/09/30 03:22:40;;;;;;;;;;;;;;;22.29;nan;102118.38;4976001;28;20028;-87
2023/09/30 03:25:06;;;;;;;;;;;;;;;22.26;nan;102118.94;4976335;28;19925;-87
2023/09/30 03:27:32;;;;;;;;;;;;;;;22.19;nan;102135.69;4979021;28;19925;-87
2023/09/30 03:29:58;;;;;;;;;;;;;;;22.14;nan;102135.75;4981080;28;19952;-87
2023/09/30 03:32:24;;;;;;;;;;;;;;;22.10;nan;102134.72;4979384;28;20389;-87
2023/09/30 03:34:50;;;;;;;;;;;;;;;22.07;nan;102139.94;4979862;28;19925;-88
2023/09/30 03:37:15;;;;;;;;;;;;;;;22.06;nan;102133.66;4981948;28;20452;-88
2023/09/30 03:39:41;;;;;;;;;;;;;;;22.03;nan;102135.03;4979251;28;19922;-87
2023/09/30 03:42:06;;;;;;;;;;;;;;;22.00;nan;102138.34;4976281;28;19918;-88
2023/09/30 03:44:32;;;;;;;;;;;;;;;21.99;nan;102141.38;4978134;28;20106;-87
2023/09/30 03:46:59;;;;;;;;;;;;;;;21.90;nan;102138.50;4980983;28;20386;-88
2023/09/30 03:49:24;;;;;;;;;;;;;;;21.85;nan;102141.25;4981485;28;19921;-88
2023/09/30 03:51:50;;;;;;;;;;;;;;;21.83;nan;102148.09;4980085;28;19938;-87
2023/09/30 03:54:17;;;;;;;;;;;;;;;21.83;nan;102148.09;4969937;28;20279;-86
2023/09/30 03:56:43;;;;;;;;;;;;;;;21.80;nan;102152.22;4998243;28;19921;-88
2023/09/30 03:59:08;;;;;;;;;;;;;;;21.71;nan;102146.59;4980655;28;19977;-87
2023/09/30 04:01:34;;;;;;;;;;;;;;;21.70;nan;102165.97;4980185;28;19926;-88
2023/09/30 04:03:59;;;;;;;;;;;;;;;21.65;nan;102163.31;4978759;28;20434;-87
2023/09/30 04:06:25;;;;;;;;;;;;;;;21.62;nan;102169.34;4985106;28;20088;-88
2023/09/30 04:08:50;;;;;;;;;;;;;;;21.61;nan;102159.53;4982034;28;19933;-89
2023/09/30 04:11:18;;;;;;;;;;;;;;;21.62;nan;102163.88;4977827;28;19926;-87
2023/09/30 04:13:46;;;;;;;;;;;;;;;21.59;nan;102164.47;4994431;28;19922;-88
2023/09/30 04:16:12;;;;;;;;;;;;;;;21.56;nan;102165.84;4983114;28;19957;-87
2023/09/30 04:18:38;;;;;;;;;;;;;;;21.54;nan;102159.84;4977079;28;20049;-87
2023/09/30 04:21:03;;;;;;;;;;;;;;;21.52;nan;102166.69;4979883;28;20236;-88
2023/09/30 04:23:29;;;;;;;;;;;;;;;21.49;nan;102168.09;4976739;28;20460;-88
2023/09/30 04:25:54;;;;;;;;;;;;;;;21.47;nan;102183.09;4979373;28;20032;-87
2023/09/30 04:28:20;;;;;;;;;;;;;;;21.40;nan;102178.00;4980583;28;20008;-88
2023/09/30 04:30:49;;;;;;;;;;;;;;;21.30;nan;102178.88;4980070;28;19921;-88
2023/09/30 04:33:14;;;;;;;;;;;;;;;21.30;nan;102180.81;4977707;28;20000;-88
2023/09/30 04:35:40;;;;;;;;;;;;;;;21.28;nan;102180.28;4980592;28;19921;-87
2023/09/30 04:38:06;;;;;;;;;;;;;;;21.29;nan;102195.53;4976369;28;20028;-87
2023/09/30 04:40:33;;;;;;;;;;;;;;;21.24;nan;102199.13;4978354;28;20398;-88
2023/09/30 04:42:59;;;;;;;;;;;;;;;21.21;nan;102202.38;4979460;28;19934;-88
2023/09/30 04:45:25;;;;;;;;;;;;;;;21.17;nan;102195.84;4996793;28;21276;-87
2023/09/30 04:47:51;;;;;;;;;;;;;;;21.16;nan;102204.31;4978359;28;19928;-87
2023/09/30 04:50:16;;;;;;;;;;;;;;;21.17;nan;102208.66;4984392;28;19925;-88
2023/09/30 04:52:42;;;;;;;;;;;;;;;21.12;nan;102210.34;4981126;28;20417;-88
2023/09/30 04:55:08;;;;;;;;;;;;;;;21.08;nan;102203.84;4977064;28;19932;-88
2023/09/30 04:57:33;;;;;;;;;;;;;;;21.00;nan;102212.59;4980342;28;20345;-87
2023/09/30 04:59:59;;;;;;;;;;;;;;;20.92;nan;102209.66;4977219;28;19953;-88
2023/09/30 05:02:24;;;;;;;;;;;;;;;20.94;nan;102207.47;4978420;28;20019;-87
2023/09/30 05:04:50;;;;;;;;;;;;;;;20.91;nan;102214.31;4980760;28;20632;-88
2023/09/30 05:07:15;;;;;;;;;;;;;;;20.87;nan;102209.72;4981186;28;19925;-87
2023/09/30 05:09:42;;;;;;;;;;;;;;;20.86;nan;102210.81;4977828;28;20043;-87
2023/09/30 05:12:07;;;;;;;;;;;;;;;20.80;nan;102216.25;4977603;28;19926;-87
2023/09/30 05:14:33;;;;;;;;;;;;;;;20.85;nan;102212.72;4979066;28;19929;-88
2023/09/30 05:16:58;;;;;;;;;;;;;;;20.81;nan;102207.00;4980536;28;19928;-87
2023/09/30 05:19:24;;;;;;;;;;;;;;;20.81;nan;102200.72;4981405;28;19921;-88
2023/09/30 05:21:49;;;;;;;;;;;;;;;20.83;nan;102209.47;4974287;28;20044;-86
2023/09/30 05:24:18;;;;;;;;;;;;;;;20.86;nan;102221.69;4977647;28;20429;-84
2023/09/30 05:26:44;;;;;;;;;;;;;;;20.89;nan;102224.66;4975624;28;20006;-87
2023/09/30 05:29:10;;;;;;;;;;;;;;;20.88;nan;102235.84;4980700;28;19922;-86
2023/09/30 05:31:35;;;;;;;;;;;;;;;20.87;nan;102231.50;4974011;28;19917;-85
2023/09/30 05:34:02;;;;;;;;;;;;;;;20.88;nan;102230.41;4979280;28;19983;-86
2023/09/30 05:36:27;;;;;;;;;;;;;;;20.86;nan;102230.69;4978456;28;19928;-87
2023/09/30 05:38:55;;;;;;;;;;;;;;;20.88;nan;102233.94;4981594;28;20173;-86
2023/09/30 05:41:20;;;;;;;;;;;;;;;20.86;nan;102229.88;4980107;28;19930;-86
2023/09/30 05:43:46;;;;;;;;;;;;;;;20.87;nan;102236.94;4979872;28;20003;-86
2023/09/30 05:46:11;;;;;;;;;;;;;;;20.88;nan;102236.66;4982044;28;19926;-87
2023/09/30 05:48:38;;;;;;;;;;;;;;;20.87;nan;102239.66;4980875;28;19933;-86
2023/09/30 05:51:04;;;;;;;;;;;;;;;20.87;nan;102251.38;4981973;28;19921;-86
2023/09/30 05:53:32;;;;;;;;;;;;;;;20.87;nan;102251.38;4980158;28;19928;-86
2023/09/30 05:55:59;;;;;;;;;;;;;;;20.90;nan;102255.44;4977181;28;20027;-86
2023/09/30 05:58:25;;;;;;;;;;;;;;;20.91;nan;102248.91;4982101;28;19922;-85
2023/09/30 06:00:50;;;;;;;;;;;;;;;20.94;nan;102268.22;4982583;28;20263;-86
2023/09/30 06:03:16;;;;;;;;;;;;;;;20.95;nan;102255.41;4981692;28;19934;-85
2023/09/30 06:05:41;;;;;;;;;;;;;;;20.98;nan;102263.84;4980785;28;19965;-86
2023/09/30 06:08:08;;;;;;;;;;;;;;;21.01;nan;102266.03;4983518;28;19926;-87
2023/09/30 06:10:35;;;;;;;;;;;;;;;21.07;nan;102267.59;4979247;28;20197;-86
2023/09/30 06:13:02;;;;;;;;;;;;;;;21.08;nan;102277.41;4982824;28;20398;-86
2023/09/30 06:15:28;;;;;;;;;;;;;;;21.11;nan;102282.28;4988786;28;20300;-87
2023/09/30 06:17:53;;;;;;;;;;;;;;;21.18;nan;102286.59;4978248;28;19984;-85
2023/09/30 06:20:21;;;;;;;;;;;;;;;21.22;nan;102283.06;4981494;28;19925;-86
2023/09/30 06:22:49;;;;;;;;;;;;;;;21.28;nan;102286.59;4978881;28;20440;-86
2023/09/30 06:25:16;;;;;;;;;;;;;;;21.32;nan;102285.72;4978956;28;19922;-86
2023/09/30 06:27:44;;;;;;;;;;;;;;;21.33;nan;102292.00;4987936;28;19952;-87
2023/09/30 06:30:10;;;;;;;;;;;;;;;21.40;nan;102292.50;4984272;28;20392;-87
2023/09/30 06:32:36;;;;;;;;;;;;;;;21.34;nan;102297.16;4976333;28;20465;-87
2023/09/30 06:35:06;;;;;;;;;;;;;;;21.34;nan;102305.34;4978097;28;20036;-86
2023/09/30 06:37:31;;;;;;;;;;;;;;;21.39;nan;102308.06;4980312;28;20505;-86
2023/09/30 06:39:56;;;;;;;;;;;;;;;21.48;nan;102307.44;4980786;28;19932;-89
2023/09/30 06:42:22;;;;;;;;;;;;;;;21.49;nan;102311.78;4987191;28;19955;-90
2023/09/30 06:44:47;;;;;;;;;;;;;;;21.49;nan;102312.59;4981572;28;19929;-89
2023/09/30 06:47:12;;;;;;;;;;;;;;;21.54;nan;102312.56;4984481;28;19976;-89
2023/09/30 06:49:38;;;;;;;;;;;;;;;21.60;nan;102314.19;4982196;28;20113;-90
2023/09/30 06:52:04;;;;;;;;;;;;;;;21.67;nan;102314.66;4982144;28;19922;-89
2023/09/30 06:54:30;;;;;;;;;;;;;;;21.70;nan;102311.34;4984780;28;19941;-88
2023/09/30 06:56:56;;;;;;;;;;;;;;;21.74;nan;102317.06;4980394;28;19944;-89
2023/09/30 06:59:21;;;;;;;;;;;;;;;21.79;nan;102318.94;4988387;28;20369;-89
2023/09/30 07:01:46;;;;;;;;;;;;;;;21.84;nan;102324.34;4977422;28;19926;-90
2023/09/30 07:04:12;;;;;;;;;;;;;;;21.95;nan;102315.81;4984273;28;19945;-88
2023/09/30 07:06:37;;;;;;;;;;;;;;;22.05;nan;102334.00;4983046;28;19925;-90
2023/09/30 07:09:02;;;;;;;;;;;;;;;22.14;nan;102329.56;4985290;28;19929;-87
2023/09/30 07:11:32;;;;;;;;;;;;;;;22.20;nan;102333.06;4983383;28;19980;-86
2023/09/30 07:13:57;;;;;;;;;;;;;;;22.29;nan;102342.25;4983359;28;20441;-91
2023/09/30 07:16:23;;;;;;;;;;;;;;;22.39;nan;102344.88;4983221;28;20020;-88
2023/09/30 07:18:48;;;;;;;;;;;;;;;22.52;nan;102346.94;4985852;28;19961;-87
2023/09/30 07:21:13;;;;;;;;;;;;;;;22.60;nan;102353.66;4985633;28;19921;-87
2023/09/30 07:23:38;;;;;;;;;;;;;;;22.75;nan;102355.41;4987450;28;19965;-84
2023/09/30 07:26:04;;;;;;;;;;;;;;;22.85;nan;102349.88;4989652;28;19924;-94
2023/09/30 07:28:29;;;;;;;;;;;;;;;22.93;nan;102357.41;4983615;28;19930;-87
2023/09/30 07:30:55;;;;;;;;;;;;;;;22.95;nan;102352.44;4987778;28;19917;-89
2023/09/30 07:33:20;;;;;;;;;;;;;;;22.99;nan;102355.44;4989739;28;19921;-89
2023/09/30 07:35:46;;;;;;;;;;;;;;;22.91;nan;102363.16;4982963;28;20000;-88
2023/09/30 07:38:11;;;;;;;;;;;;;;;22.87;nan;102359.41;4981225;28;19978;-89
2023/09/30 07:40:36;;;;;;;;;;;;;;;22.88;nan;102373.88;4979959;28;20228;-86
2023/09/30 07:43:02;;;;;;;;;;;;;;;22.96;nan;102364.19;4980364;28;19932;-88
2023/09/30 07:45:27;;;;;;;;;;;;;;;22.93;nan;102368.34;4983170;28;20000;-87
2023/09/30 07:47:53;;;;;;;;;;;;;;;22.89;nan;102367.31;4997942;28;19925;-88
2023/09/30 07:50:18;;;;;;;;;;;;;;;22.94;nan;102364.50;4982331;28;20390;-88
2023/09/30 07:52:44;;;;;;;;;;;;;;;23.02;nan;102373.97;4995170;28;19944;-91
2023/09/30 07:55:10;;;;;;;;;;;;;;;23.06;nan;102375.03;4977624;28;19968;-87
2023/09/30 07:57:35;;;;;;;;;;;;;;;23.10;nan;102387.81;4990948;28;19925;-88
2023/09/30 08:00:01;;;;;;;;;;;;;;;23.09;nan;102385.38;4978828;28;19921;-89
2023/09/30 08:02:32;;;;;;;;;;;;;;;23.08;nan;102383.75;4986756;28;19941;-90
2023/09/30 08:04:59;;;;;;;;;;;;;;;23.03;nan;102384.63;4980856;28;20016;-86
2023/09/30 08:07:24;;;;;;;;;;;;;;;22.98;nan;102378.38;4981012;28;20401;-90
2023/09/30 08:09:50;;;;;;;;;;;;;;;22.98;nan;102379.22;4977738;28;20019;-89
2023/09/30 08:12:15;;;;;;;;;;;;;;;22.99;nan;102399.19;4993989;28;19922;-92
2023/09/30 08:14:40;;;;;;;;;;;;;;;23.00;nan;102406.28;4978024;28;20003;-89
2023/09/30 08:17:06;;;;;;;;;;;;;;;23.01;nan;102403.25;4977313;28;20305;-85
2023/09/30 08:19:31;;;;;;;;;;;;;;;23.00;nan;102398.88;4983771;28;19941;-89
2023/09/30 08:21:56;;;;;;;;;;;;;;;23.03;nan;102402.94;4977656;28;19918;-85
2023/09/30 08:24:22;;;;;;;;;;;;;;;23.06;nan;102405.09;4980881;28;19973;-87
2023/09/30 08:26:47;;;;;;;;;;;;;;;23.05;nan;102412.47;4980416;28;19926;-92
2023/09/30 08:29:12;;;;;;;;;;;;;;;23.02;nan;102409.53;4981687;28;20297;-89
2023/09/30 08:31:38;;;;;;;;;;;;;;;23.04;nan;102418.25;4978534;28;19928;-90
2023/09/30 08:34:03;;;;;;;;;;;;;;;23.05;nan;102419.88;4978763;28;19925;-87
2023/09/30 08:36:29;;;;;;;;;;;;;;;23.09;nan;102420.91;4983979;28;19961;-89
2023/09/30 08:38:55;;;;;;;;;;;;;;;23.10;nan;102417.88;4980959;28;20386;-89
2023/09/30 08:41:38;;;;;;;;;;;;;;;23.17;nan;102423.81;4985313;28;19922;-93
2023/09/30 08:44:04;;;;;;;;;;;;;;;23.19;nan;102421.59;4975293;28;19926;-89
2023/09/30 08:46:33;;;;;;;;;;;;;;;23.26;nan;102420.44;4982706;28;19969;-89
2023/09/30 08:49:03;;;;;;;;;;;;;;;23.26;nan;102421.22;4981534;28;19922;-86
2023/09/30 08:51:28;;;;;;;;;;;;;;;23.34;nan;102422.50;4982157;28;19925;-91
2023/09/30 08:53:56;;;;;;;;;;;;;;;23.38;nan;102426.28;4984911;28;19928;-91
2023/09/30 08:56:24;;;;;;;;;;;;;;;23.52;nan;102424.47;4978160;28;20382;-90
2023/09/30 08:58:50;;;;;;;;;;;;;;;23.63;nan;102425.97;4978117;28;19929;-90
2023/09/30 09:01:16;;;;;;;;;;;;;;;23.69;nan;102429.41;4979271;28;19922;-89
2023/09/30 09:03:41;;;;;;;;;;;;;;;23.69;nan;102418.47;4975222;28;19929;-90
2023/09/30 09:06:07;;;;;;;;;;;;;;;23.81;nan;102414.19;4980739;28;19922;-93
2023/09/30 09:08:32;;;;;;;;;;;;;;;23.94;nan;102415.38;4981471;28;20364;-87
2023/09/30 09:11:00;;;;;;;;;;;;;;;24.02;nan;102411.13;4977367;28;19922;-92
2023/09/30 09:13:25;;;;;;;;;;;;;;;24.08;nan;102409.94;4990355;28;19944;-87
2023/09/30 09:16:11;;;;;;;;;;;;;;;24.13;nan;102415.34;4987622;28;20496;-94
2023/09/30 09:18:37;;;;;;;;;;;;;;;24.23;nan;102420.63;4981902;28;19925;-89
2023/09/30 09:21:10;;;;;;;;;;;;;;;24.28;nan;102425.22;4981823;28;20392;-87
2023/09/30 09:23:38;;;;;;;;;;;;;;;24.32;nan;102427.09;4981044;28;20397;-89
2023/09/30 09:26:06;;;;;;;;;;;;;;;24.40;nan;102429.13;4981298;28;19926;-93
2023/09/30 09:28:36;;;;;;;;;;;;;;;24.44;nan;102425.81;4986941;28;20366;-88
2023/09/30 09:31:01;;;;;;;;;;;;;;;24.49;nan;102414.75;4985711;28;19921;-87
2023/09/30 09:33:38;;;;;;;;;;;;;;;24.59;nan;102422.75;4983482;28;19928;-89
2023/09/30 09:36:04;;;;;;;;;;;;;;;24.77;nan;102432.81;4980056;28;19921;-89
2023/09/30 09:38:43;;;;;;;;;;;;;;;24.90;nan;102432.03;4987025;28;19921;-88
2023/09/30 09:41:08;;;;;;;;;;;;;;;25.13;nan;102437.63;4980469;28;19929;-86
2023/09/30 09:43:36;;;;;;;;;;;;;;;25.33;nan;102433.69;4983536;28;20329;-89
2023/09/30 09:46:03;;;;;;;;;;;;;;;25.47;nan;102417.97;4983679;28;19941;-87
2023/09/30 09:48:28;;;;;;;;;;;;;;;25.74;nan;102414.38;4982344;28;20236;-88
2023/09/30 09:50:54;;;;;;;;;;;;;;;25.97;nan;102416.00;4984412;28;19949;-89
2023/09/30 09:53:20;;;;;;;;;;;;;;;26.14;nan;102415.31;4993206;28;20416;-91
2023/09/30 09:55:46;;;;;;;;;;;;;;;26.25;nan;102413.94;4987544;28;20385;-89
2023/09/30 09:58:12;;;;;;;;;;;;;;;26.27;nan;102410.88;4978478;28;20565;-87
2023/09/30 10:00:38;;;;;;;;;;;;;;;26.27;nan;102410.88;4981496;28;19926;-89
2023/09/30 10:03:04;;;;;;;;;;;;;;;26.23;nan;102413.47;4983851;28;20524;-86
2023/09/30 10:05:29;;;;;;;;;;;;;;;26.25;nan;102421.38;4988184;28;19932;-87
2023/09/30 10:07:57;;;;;;;;;;;;;;;26.17;nan;102417.44;4990524;28;19921;-91
2023/09/30 10:10:23;;;;;;;;;;;;;;;26.15;nan;102422.44;4994530;28;19921;-93
2023/09/30 10:12:49;;;;;;;;;;;;;;;26.17;nan;102418.25;4987926;28;19983;-92
2023/09/30 10:15:26;;;;;;;;;;;;;;;26.20;nan;102416.81;4985738;28;20424;-86
2023/09/30 10:17:58;;;;;;;;;;;;;;;26.25;nan;102410.41;4988947;28;19944;-92
2023/09/30 10:20:27;;;;;;;;;;;;;;;26.29;nan;102416.88;4986041;28;20546;-85
2023/09/30 10:23:12;;;;;;;;;;;;;;;26.36;nan;102412.56;4981122;28;19921;-85
2023/09/30 10:25:40;;;;;;;;;;;;;;;26.49;nan;102416.38;4977728;28;19972;-90
2023/09/30 10:28:24;;;;;;;;;;;;;;;26.55;nan;102417.84;4984028;28;19918;-92
2023/09/30 10:31:08;;;;;;;;;;;;;;;26.59;nan;102424.34;4990795;28;20364;-88
2023/09/30 10:33:33;;;;;;;;;;;;;;;26.60;nan;102412.22;4983739;28;20004;-91
2023/09/30 10:36:00;;;;;;;;;;;;;;;26.61;nan;102424.84;4990459;28;20013;-87
2023/09/30 10:38:28;;;;;;;;;;;;;;;26.56;nan;102419.47;4989760;28;19925;-89
2023/09/30 10:40:54;;;;;;;;;;;;;;;26.45;nan;102424.44;4986640;28;19926;-94
2023/09/30 10:43:48;;;;;;;;;;;;;;;26.42;nan;102421.50;4992563;28;20207;-93
2023/09/30 10:46:28;;;;;;;;;;;;;;;26.52;nan;102423.16;4968381;28;21904;-90
2023/09/30 10:48:53;;;;;;;;;;;;;;;26.70;nan;102424.88;4991104;28;19993;-91
2023/09/30 10:51:21;;;;;;;;;;;;;;;26.84;nan;102422.81;4995016;28;19949;-93
2023/09/30 10:53:56;;;;;;;;;;;;;;;26.98;nan;102422.72;4994373;28;19914;-91
2023/09/30 10:56:21;;;;;;;;;;;;;;;27.01;nan;102422.91;4992794;28;19945;-88
2023/09/30 10:58:48;;;;;;;;;;;;;;;27.09;nan;102426.81;4986516;28;20051;-92
2023/09/30 11:01:23;;;;;;;;;;;;;;;27.14;nan;102423.94;5004229;28;20091;-89
2023/09/30 11:03:52;;;;;;;;;;;;;;;27.21;nan;102427.00;4981366;28;19937;-87
2023/09/30 11:06:21;;;;;;;;;;;;;;;27.40;nan;102423.97;4987718;28;19926;-86
2023/09/30 11:08:56;;;;;;;;;;;;;;;27.47;nan;102424.31;4987989;28;19957;-92
2023/09/30 11:11:34;;;;;;;;;;;;;;;27.40;nan;102422.03;4984765;28;19918;-87
2023/09/30 11:14:00;;;;;;;;;;;;;;;27.26;nan;102413.09;4983527;28;19917;-91
2023/09/30 11:16:25;;;;;;;;;;;;;;;27.20;nan;102417.13;4984425;28;20406;-88
2023/09/30 11:18:54;;;;;;;;;;;;;;;27.26;nan;102418.59;4981468;28;19973;-93
2023/09/30 11:21:20;;;;;;;;;;;;;;;27.32;nan;102406.31;4985768;28;19995;-85
2023/09/30 11:23:45;;;;;;;;;;;;;;;27.37;nan;102405.34;4986735;28;20449;-91
2023/09/30 11:26:13;;;;;;;;;;;;;;;27.42;nan;102412.63;4984538;28;19918;-92
2023/09/30 11:28:39;;;;;;;;;;;;;;;27.44;nan;102418.63;4991450;28;20008;-89
2023/09/30 11:31:07;;;;;;;;;;;;;;;27.45;nan;102411.97;4983257;28;19922;-93
2023/09/30 11:33:33;;;;;;;;;;;;;;;27.50;nan;102409.09;4982891;28;19917;-89
2023/09/30 11:36:00;;;;;;;;;;;;;;;27.60;nan;102408.75;4986705;28;20004;-91
2023/09/30 11:38:26;;;;;;;;;;;;;;;27.65;nan;102416.91;4980168;28;19929;-92
2023/09/30 11:41:06;;;;;;;;;;;;;;;27.64;nan;102409.75;4987724;28;19922;-89
2023/09/30 11:43:32;;;;;;;;;;;;;;;27.61;nan;102413.13;4983167;28;20016;-89
2023/09/30 11:46:27;;;;;;;;;;;;;;;27.57;nan;102410.22;4987617;28;19921;-91
2023/09/30 11:48:59;;;;;;;;;;;;;;;27.51;nan;102402.44;4986909;28;19988;-93
2023/09/30 11:51:26;;;;;;;;;;;;;;;27.47;nan;102415.22;4987877;28;19961;-91
2023/09/30 11:53:53;;;;;;;;;;;;;;;27.43;nan;102408.75;4988449;28;19940;-85
2023/09/30 11:56:18;;;;;;;;;;;;;;;27.37;nan;102408.91;4986990;28;19984;-88
2023/09/30 11:58:43;;;;;;;;;;;;;;;27.42;nan;102409.88;4983379;28;19918;-89
2023/09/30 12:01:13;;;;;;;;;;;;;;;27.42;nan;102407.13;4985290;28;19932;-86
2023/09/30 12:03:39;;;;;;;;;;;;;;;27.45;nan;102399.03;4984356;28;19922;-91
2023/09/30 12:06:05;;;;;;;;;;;;;;;27.55;nan;102406.16;4989153;28;20397;-90
2023/09/30 12:08:31;;;;;;;;;;;;;;;27.67;nan;102389.84;4983762;28;20021;-90
2023/09/30 12:10:57;;;;;;;;;;;;;;;27.89;nan;102386.91;4987092;28;19930;-90
2023/09/30 12:13:23;;;;;;;;;;;;;;;28.09;nan;102388.16;4989330;28;20044;-87
2023/09/30 12:15:48;;;;;;;;;;;;;;;28.32;nan;102383.25;4988609;28;19925;-87
2023/09/30 12:18:17;;;;;;;;;;;;;;;28.49;nan;102377.69;4979356;28;19928;-89
2023/09/30 12:20:42;;;;;;;;;;;;;;;28.63;nan;102376.66;4987607;28;20023;-92
2023/09/30 12:23:08;;;;;;;;;;;;;;;28.61;nan;102377.00;4982905;28;19983;-86
2023/09/30 12:25:33;;;;;;;;;;;;;;;28.57;nan;102379.63;4985741;28;20400;-93
2023/09/30 12:27:58;;;;;;;;;;;;;;;28.48;nan;102376.06;4981272;28;19925;-89
2023/09/30 12:30:24;;;;;;;;;;;;;;;28.38;nan;102378.41;4980178;28;19922;-86
2023/09/30 12:32:49;;;;;;;;;;;;;;;28.39;nan;102378.06;4980027;28;20025;-86
2023/09/30 12:35:14;;;;;;;;;;;;;;;28.56;nan;102379.94;4979176;28;19945;-88
2023/09/30 12:37:40;;;;;;;;;;;;;;;28.57;nan;102373.28;4981196;28;20238;-92
2023/09/30 12:40:11;;;;;;;;;;;;;;;28.55;nan;102381.91;4981876;28;19925;-93
2023/09/30 12:42:36;;;;;;;;;;;;;;;28.67;nan;102372.91;4981668;28;19944;-89
2023/09/30 12:45:02;;;;;;;;;;;;;;;28.79;nan;102364.75;4976814;28;20379;-92
2023/09/30 12:47:28;;;;;;;;;;;;;;;28.87;nan;102369.41;4980362;28;19925;-93
2023/09/30 12:49:54;;;;;;;;;;;;;;;28.92;nan;102379.47;4982803;28;19933;-91
2023/09/30 12:52:19;;;;;;;;;;;;;;;29.00;nan;102369.50;4981183;28;19922;-92
2023/09/30 12:54:45;;;;;;;;;;;;;;;29.09;nan;102373.03;4980322;28;19921;-94